Terminal Aerodrome Forecast
Issued by NWS

Home | Current Version | Previous Version | Graphics & Text | Print | Product List | Glossary On
Versions: 1 2 3 4 5 6 7 8 9 10 11 12 13 14 15
492
FTUS43 KGRB 290741 AAA
TAFMTW
TAF AMD
KMTW 290741Z 2908/3006 01004KT P6SM VCSH OVC030
     FM291200 03005KT P6SM OVC035
     FM291800 04008KT P6SM SCT050=

USA.gov is the U.S. government's official web portal to all federal, state and local government web resources and services.